sensor_id;sensor_type;location;lat;lon;timestamp;pressure;altitude;pressure_sealevel;temperature;humidity
12775;BME280;6451;42.630;23.382;2023-01-08T00:00:15;94926.25;;;2.28;100.00
12775;BME280;6451;42.630;23.382;2023-01-08T00:02:42;94937.41;;;2.40;100.00
12775;BME280;6451;42.630;23.382;2023-01-08T00:05:09;94928.59;;;2.39;100.00
12775;BME280;6451;42.630;23.382;2023-01-08T00:07:37;94922.66;;;2.42;100.00
12775;BME280;6451;42.630;23.382;2023-01-08T00:10:06;94906.22;;;2.20;100.00
12775;BME280;6451;42.630;23.382;2023-01-08T00:12:33;94918.53;;;2.21;100.00
12775;BME280;6451;42.630;23.382;2023-01-08T00:15:00;94903.13;;;2.08;100.00
12775;BME280;6451;42.630;23.382;2023-01-08T00:17:27;94926.63;;;2.16;100.00
12775;BME280;6451;42.630;23.382;2023-01-08T00:19:54;94919.78;;;2.00;100.00
12775;BME280;6451;42.630;23.382;2023-01-08T00:22:21;94916.44;;;2.13;100.00
12775;BME280;6451;42.630;23.382;2023-01-08T00:24:48;94920.22;;;2.07;100.00
12775;BME280;6451;42.630;23.382;2023-01-08T00:27:16;94880.28;;;1.76;100.00
12775;BME280;6451;42.630;23.382;2023-01-08T00:29:43;94927.94;;;2.13;100.00
12775;BME280;6451;42.630;23.382;2023-01-08T00:32:10;94905.63;;;1.89;100.00
12775;BME280;6451;42.630;23.382;2023-01-08T00:34:36;94936.03;;;2.08;100.00
12775;BME280;6451;42.630;23.382;2023-01-08T00:37:03;94917.34;;;1.98;100.00
12775;BME280;6451;42.630;23.382;2023-01-08T00:39:30;94941.34;;;2.13;100.00
12775;BME280;6451;42.630;23.382;2023-01-08T00:41:57;94886.94;;;1.84;100.00
12775;BME280;6451;42.630;23.382;2023-01-08T00:44:26;94930.44;;;2.05;100.00
12775;BME280;6451;42.630;23.382;2023-01-08T00:46:53;94940.34;;;1.99;100.00
12775;BME280;6451;42.630;23.382;2023-01-08T00:49:20;94932.31;;;1.99;100.00
12775;BME280;6451;42.630;23.382;2023-01-08T00:51:47;94939.31;;;2.00;100.00
12775;BME280;6451;42.630;23.382;2023-01-08T00:54:14;94936.13;;;1.93;100.00
12775;BME280;6451;42.630;23.382;2023-01-08T00:56:41;94905.94;;;1.82;100.00
12775;BME280;6451;42.630;23.382;2023-01-08T00:59:08;94928.91;;;1.93;100.00
12775;BME280;6451;42.630;23.382;2023-01-08T01:01:36;94934.50;;;1.97;100.00
12775;BME280;6451;42.630;23.382;2023-01-08T01:04:06;94934.78;;;1.95;100.00
12775;BME280;6451;42.630;23.382;2023-01-08T01:06:39;94884.72;;;1.52;100.00
12775;BME280;6451;42.630;23.382;2023-01-08T01:09:06;94928.94;;;1.83;100.00
12775;BME280;6451;42.630;23.382;2023-01-08T01:11:33;94919.81;;;1.89;100.00
12775;BME280;6451;42.630;23.382;2023-01-08T01:14:01;94938.84;;;1.88;100.00
12775;BME280;6451;42.630;23.382;2023-01-08T01:16:28;94936.44;;;1.86;100.00
12775;BME280;6451;42.630;23.382;2023-01-08T01:18:56;94928.63;;;1.90;100.00
12775;BME280;6451;42.630;23.382;2023-01-08T01:21:27;94907.91;;;1.66;100.00
12775;BME280;6451;42.630;23.382;2023-01-08T01:23:56;94915.13;;;1.71;100.00
12775;BME280;6451;42.630;23.382;2023-01-08T01:26:24;94895.63;;;1.60;100.00
12775;BME280;6451;42.630;23.382;2023-01-08T01:28:52;94927.91;;;1.79;100.00
12775;BME280;6451;42.630;23.382;2023-01-08T01:31:20;94927.91;;;1.79;100.00
12775;BME280;6451;42.630;23.382;2023-01-08T01:33:48;94926.84;;;1.80;100.00
12775;BME280;6451;42.630;23.382;2023-01-08T01:36:20;94923.34;;;1.85;100.00
12775;BME280;6451;42.630;23.382;2023-01-08T01:38:49;94911.09;;;1.74;100.00
12775;BME280;6451;42.630;23.382;2023-01-08T01:41:20;94917.22;;;1.74;100.00
12775;BME280;6451;42.630;23.382;2023-01-08T01:43:49;94919.38;;;1.77;100.00
12775;BME280;6451;42.630;23.382;2023-01-08T01:46:21;94916.16;;;1.75;100.00
12775;BME280;6451;42.630;23.382;2023-01-08T01:48:52;94832.47;;;1.25;100.00
12775;BME280;6451;42.630;23.382;2023-01-08T01:51:24;94905.81;;;1.53;100.00
12775;BME280;6451;42.630;23.382;2023-01-08T01:53:55;94903.19;;;1.48;100.00
12775;BME280;6451;42.630;23.382;2023-01-08T01:56:22;94915.47;;;1.54;100.00
12775;BME280;6451;42.630;23.382;2023-01-08T01:58:49;94898.94;;;1.47;100.00
12775;BME280;6451;42.630;23.382;2023-01-08T02:01:16;94906.09;;;1.52;100.00
12775;BME280;6451;42.630;23.382;2023-01-08T02:03:42;94919.69;;;1.60;100.00
12775;BME280;6451;42.630;23.382;2023-01-08T02:06:16;94896.50;;;1.51;100.00
12775;BME280;6451;42.630;23.382;2023-01-08T02:08:54;94877.56;;;1.42;100.00
12775;BME280;6451;42.630;23.382;2023-01-08T02:11:26;94853.34;;;1.18;100.00
12775;BME280;6451;42.630;23.382;2023-01-08T02:13:58;94883.78;;;1.27;100.00
12775;BME280;6451;42.630;23.382;2023-01-08T02:16:33;94902.13;;;1.49;100.00
12775;BME280;6451;42.630;23.382;2023-01-08T02:19:11;94903.22;;;1.43;100.00
12775;BME280;6451;42.630;23.382;2023-01-08T02:21:49;94888.34;;;1.22;100.00
12775;BME280;6451;42.630;23.382;2023-01-08T02:24:27;94897.59;;;1.45;100.00
12775;BME280;6451;42.630;23.382;2023-01-08T02:26:58;94893.03;;;1.50;100.00
12775;BME280;6451;42.630;23.382;2023-01-08T02:29:28;94878.38;;;1.37;100.00
12775;BME280;6451;42.630;23.382;2023-01-08T02:31:56;94874.31;;;1.45;100.00
12775;BME280;6451;42.630;23.382;2023-01-08T02:34:23;94861.00;;;1.35;100.00
12775;BME280;6451;42.630;23.382;2023-01-08T02:36:53;94886.06;;;1.49;100.00
12775;BME280;6451;42.630;23.382;2023-01-08T02:39:42;94878.69;;;1.31;100.00
12775;BME280;6451;42.630;23.382;2023-01-08T02:42:19;94883.53;;;1.24;100.00
12775;BME280;6451;42.630;23.382;2023-01-08T02:44:55;94882.69;;;1.28;100.00
12775;BME280;6451;42.630;23.382;2023-01-08T02:47:29;94772.66;;;0.57;100.00
12775;BME280;6451;42.630;23.382;2023-01-08T02:50:04;94870.47;;;1.17;100.00
12775;BME280;6451;42.630;23.382;2023-01-08T02:52:37;94854.69;;;1.16;100.00
12775;BME280;6451;42.630;23.382;2023-01-08T02:55:07;94873.63;;;1.24;100.00
12775;BME280;6451;42.630;23.382;2023-01-08T02:57:37;94788.03;;;0.80;100.00
12775;BME280;6451;42.630;23.382;2023-01-08T03:00:05;94845.34;;;1.13;100.00
12775;BME280;6451;42.630;23.382;2023-01-08T03:02:34;94843.75;;;1.12;100.00
12775;BME280;6451;42.630;23.382;2023-01-08T03:05:08;94850.66;;;1.18;100.00
12775;BME280;6451;42.630;23.382;2023-01-08T03:07:40;94866.13;;;1.31;100.00
12775;BME280;6451;42.630;23.382;2023-01-08T03:10:07;94884.03;;;1.31;100.00
12775;BME280;6451;42.630;23.382;2023-01-08T03:12:43;94882.22;;;1.11;100.00
12775;BME280;6451;42.630;23.382;2023-01-08T03:15:15;94872.41;;;0.91;100.00
12775;BME280;6451;42.630;23.382;2023-01-08T03:17:47;94826.56;;;0.64;100.00
12775;BME280;6451;42.630;23.382;2023-01-08T03:20:18;94889.75;;;1.04;100.00
12775;BME280;6451;42.630;23.382;2023-01-08T03:22:47;94886.03;;;1.00;100.00
12775;BME280;6451;42.630;23.382;2023-01-08T03:25:17;94904.16;;;1.08;100.00
12775;BME280;6451;42.630;23.382;2023-01-08T03:27:51;94811.06;;;0.66;100.00
12775;BME280;6451;42.630;23.382;2023-01-08T03:30:20;94835.38;;;0.69;100.00
12775;BME280;6451;42.630;23.382;2023-01-08T03:32:50;94876.44;;;0.94;100.00
12775;BME280;6451;42.630;23.382;2023-01-08T03:35:21;94883.94;;;0.81;100.00
12775;BME280;6451;42.630;23.382;2023-01-08T03:37:53;94886.88;;;0.75;100.00
12775;BME280;6451;42.630;23.382;2023-01-08T03:40:22;94894.66;;;0.71;100.00
12775;BME280;6451;42.630;23.382;2023-01-08T03:42:52;94887.72;;;0.65;100.00
12775;BME280;6451;42.630;23.382;2023-01-08T03:45:21;94868.50;;;0.58;100.00
12775;BME280;6451;42.630;23.382;2023-01-08T03:47:49;94881.00;;;0.78;100.00
12775;BME280;6451;42.630;23.382;2023-01-08T03:50:20;94877.81;;;0.66;100.00
12775;BME280;6451;42.630;23.382;2023-01-08T03:52:48;94877.78;;;0.81;100.00
12775;BME280;6451;42.630;23.382;2023-01-08T03:55:15;94822.34;;;0.47;100.00
12775;BME280;6451;42.630;23.382;2023-01-08T03:57:42;94875.13;;;0.81;100.00
12775;BME280;6451;42.630;23.382;2023-01-08T04:00:12;94819.41;;;0.44;100.00
12775;BME280;6451;42.630;23.382;2023-01-08T04:02:39;94879.38;;;0.87;100.00
12775;BME280;6451;42.630;23.382;2023-01-08T04:05:07;94885.25;;;0.84;100.00
12775;BME280;6451;42.630;23.382;2023-01-08T04:07:34;94880.22;;;0.72;100.00
12775;BME280;6451;42.630;23.382;2023-01-08T04:10:01;94883.94;;;0.81;100.00
12775;BME280;6451;42.630;23.382;2023-01-08T04:12:28;94887.91;;;0.84;100.00
12775;BME280;6451;42.630;23.382;2023-01-08T04:14:55;94888.75;;;0.85;100.00
12775;BME280;6451;42.630;23.382;2023-01-08T04:17:23;94889.28;;;0.87;100.00
12775;BME280;6451;42.630;23.382;2023-01-08T04:19:50;94889.00;;;0.83;100.00
12775;BME280;6451;42.630;23.382;2023-01-08T04:22:17;94892.25;;;0.70;100.00
12775;BME280;6451;42.630;23.382;2023-01-08T04:24:44;94880.25;;;0.57;100.00
12775;BME280;6451;42.630;23.382;2023-01-08T04:27:11;94898.66;;;0.59;100.00
12775;BME280;6451;42.630;23.382;2023-01-08T04:29:38;94866.41;;;0.40;100.00
12775;BME280;6451;42.630;23.382;2023-01-08T04:32:04;94879.69;;;0.60;100.00
12775;BME280;6451;42.630;23.382;2023-01-08T04:34:33;94882.94;;;0.42;100.00
12775;BME280;6451;42.630;23.382;2023-01-08T04:36:59;94888.81;;;0.49;100.00
12775;BME280;6451;42.630;23.382;2023-01-08T04:39:27;94884.78;;;0.62;100.00
12775;BME280;6451;42.630;23.382;2023-01-08T04:41:54;94866.38;;;0.50;100.00
12775;BME280;6451;42.630;23.382;2023-01-08T04:44:21;94892.81;;;0.57;100.00
12775;BME280;6451;42.630;23.382;2023-01-08T04:46:48;94891.47;;;0.49;100.00
12775;BME280;6451;42.630;23.382;2023-01-08T04:49:15;94893.88;;;0.50;100.00
12775;BME280;6451;42.630;23.382;2023-01-08T04:51:44;94895.47;;;0.57;100.00
12775;BME280;6451;42.630;23.382;2023-01-08T04:54:11;94872.19;;;0.77;100.00
12775;BME280;6451;42.630;23.382;2023-01-08T04:56:38;94895.44;;;0.77;100.00
12775;BME280;6451;42.630;23.382;2023-01-08T04:59:05;94899.72;;;0.68;100.00
12775;BME280;6451;42.630;23.382;2023-01-08T05:01:32;94864.94;;;0.83;100.00
12775;BME280;6451;42.630;23.382;2023-01-08T05:04:00;94895.19;;;1.38;100.00
12775;BME280;6451;42.630;23.382;2023-01-08T05:06:28;94897.97;;;1.18;100.00
12775;BME280;6451;42.630;23.382;2023-01-08T05:08:57;94887.06;;;1.09;100.00
12775;BME280;6451;42.630;23.382;2023-01-08T05:11:25;94890.59;;;0.89;100.00
12775;BME280;6451;42.630;23.382;2023-01-08T05:13:52;94838.66;;;0.25;100.00
12775;BME280;6451;42.630;23.382;2023-01-08T05:16:19;94898.63;;;0.69;100.00
12775;BME280;6451;42.630;23.382;2023-01-08T05:18:46;94904.81;;;0.49;100.00
12775;BME280;6451;42.630;23.382;2023-01-08T05:21:13;94907.75;;;0.63;100.00
12775;BME280;6451;42.630;23.382;2023-01-08T05:23:43;94905.09;;;0.47;100.00
12775;BME280;6451;42.630;23.382;2023-01-08T05:26:12;94837.88;;;0.10;100.00
12775;BME280;6451;42.630;23.382;2023-01-08T05:28:41;94908.81;;;0.51;100.00
12775;BME280;6451;42.630;23.382;2023-01-08T05:31:11;94883.22;;;0.40;100.00
12775;BME280;6451;42.630;23.382;2023-01-08T05:33:38;94879.72;;;0.55;100.00
12775;BME280;6451;42.630;23.382;2023-01-08T05:36:06;94904.56;;;0.50;100.00
12775;BME280;6451;42.630;23.382;2023-01-08T05:38:33;94917.91;;;0.45;100.00
12775;BME280;6451;42.630;23.382;2023-01-08T05:41:00;94914.97;;;0.37;100.00
12775;BME280;6451;42.630;23.382;2023-01-08T05:43:29;94919.75;;;0.45;100.00
12775;BME280;6451;42.630;23.382;2023-01-08T05:45:57;94897.38;;;0.25;100.00
12775;BME280;6451;42.630;23.382;2023-01-08T05:48:24;94895.75;;;0.19;100.00
12775;BME280;6451;42.630;23.382;2023-01-08T05:50:51;94911.50;;;0.21;100.00
12775;BME280;6451;42.630;23.382;2023-01-08T05:53:18;94899.78;;;0.17;100.00
12775;BME280;6451;42.630;23.382;2023-01-08T05:55:46;94904.31;;;0.11;100.00
12775;BME280;6451;42.630;23.382;2023-01-08T05:58:13;94896.81;;;0.03;100.00
12775;BME280;6451;42.630;23.382;2023-01-08T06:00:45;94897.63;;;0.09;100.00
12775;BME280;6451;42.630;23.382;2023-01-08T06:03:12;94883.22;;;-0.06;100.00
12775;BME280;6451;42.630;23.382;2023-01-08T06:05:40;94908.03;;;0.10;100.00
12775;BME280;6451;42.630;23.382;2023-01-08T06:08:06;94915.25;;;0.10;100.00
12775;BME280;6451;42.630;23.382;2023-01-08T06:10:33;94903.22;;;-0.08;100.00
12775;BME280;6451;42.630;23.382;2023-01-08T06:13:00;94919.50;;;0.11;100.00
12775;BME280;6451;42.630;23.382;2023-01-08T06:15:28;94891.22;;;-0.11;100.00
12775;BME280;6451;42.630;23.382;2023-01-08T06:17:56;94897.63;;;-0.07;100.00
12775;BME280;6451;42.630;23.382;2023-01-08T06:20:23;94897.34;;;-0.10;100.00
12775;BME280;6451;42.630;23.382;2023-01-08T06:22:52;94908.03;;;0.10;100.00
12775;BME280;6451;42.630;23.382;2023-01-08T06:25:19;94915.78;;;0.27;100.00
12775;BME280;6451;42.630;23.382;2023-01-08T06:27:49;94917.91;;;0.45;100.00
12775;BME280;6451;42.630;23.382;2023-01-08T06:30:16;94885.88;;;0.20;100.00
12775;BME280;6451;42.630;23.382;2023-01-08T06:32:43;94918.44;;;0.47;100.00
12775;BME280;6451;42.630;23.382;2023-01-08T06:35:11;94920.03;;;0.48;100.00
12775;BME280;6451;42.630;23.382;2023-01-08T06:37:38;94923.78;;;0.58;100.00
12775;BME280;6451;42.630;23.382;2023-01-08T06:40:06;94930.44;;;0.60;100.00
12775;BME280;6451;42.630;23.382;2023-01-08T06:42:33;94924.84;;;0.62;100.00
12775;BME280;6451;42.630;23.382;2023-01-08T06:45:00;94923.22;;;0.71;100.00
12775;BME280;6451;42.630;23.382;2023-01-08T06:47:27;94916.50;;;0.89;100.00
12775;BME280;6451;42.630;23.382;2023-01-08T06:49:53;94931.13;;;1.06;100.00
12775;BME280;6451;42.630;23.382;2023-01-08T06:52:22;94935.13;;;1.14;100.00
12775;BME280;6451;42.630;23.382;2023-01-08T06:54:49;94925.50;;;1.23;100.00
12775;BME280;6451;42.630;23.382;2023-01-08T06:57:16;94932.13;;;1.36;100.00
12775;BME280;6451;42.630;23.382;2023-01-08T06:59:43;94934.50;;;1.48;100.00
12775;BME280;6451;42.630;23.382;2023-01-08T07:02:12;94916.06;;;1.41;100.00
12775;BME280;6451;42.630;23.382;2023-01-08T07:04:45;94927.44;;;1.67;100.00
12775;BME280;6451;42.630;23.382;2023-01-08T07:07:13;94929.91;;;1.53;100.00
12775;BME280;6451;42.630;23.382;2023-01-08T07:09:41;94875.22;;;1.25;100.00
12775;BME280;6451;42.630;23.382;2023-01-08T07:12:11;94935.78;;;1.55;100.00
12775;BME280;6451;42.630;23.382;2023-01-08T07:14:39;94869.66;;;1.11;100.00
12775;BME280;6451;42.630;23.382;2023-01-08T07:17:06;94854.94;;;1.14;100.00
12775;BME280;6451;42.630;23.382;2023-01-08T07:19:33;94889.25;;;1.56;100.00
12775;BME280;6451;42.630;23.382;2023-01-08T07:21:59;94934.34;;;1.73;100.00
12775;BME280;6451;42.630;23.382;2023-01-08T07:24:26;94937.22;;;1.87;100.00
12775;BME280;6451;42.630;23.382;2023-01-08T07:26:55;94912.84;;;1.93;100.00
12775;BME280;6451;42.630;23.382;2023-01-08T07:29:22;94945.06;;;2.17;100.00
12775;BME280;6451;42.630;23.382;2023-01-08T07:31:49;94946.69;;;2.13;100.00
12775;BME280;6451;42.630;23.382;2023-01-08T07:34:16;94934.75;;;2.40;100.00
12775;BME280;6451;42.630;23.382;2023-01-08T07:36:42;94929.44;;;2.30;100.00
12775;BME280;6451;42.630;23.382;2023-01-08T07:39:09;94936.41;;;2.31;100.00
12775;BME280;6451;42.630;23.382;2023-01-08T07:41:36;94931.78;;;2.41;100.00
12775;BME280;6451;42.630;23.382;2023-01-08T07:44:04;94951.19;;;2.57;100.00
12775;BME280;6451;42.630;23.382;2023-01-08T07:46:31;94876.59;;;2.11;100.00
12775;BME280;6451;42.630;23.382;2023-01-08T07:48:58;94936.97;;;2.62;100.00
12775;BME280;6451;42.630;23.382;2023-01-08T07:51:25;94950.97;;;2.83;100.00
12775;BME280;6451;42.630;23.382;2023-01-08T07:53:52;94896.84;;;2.51;100.00
12775;BME280;6451;42.630;23.382;2023-01-08T07:56:20;94953.75;;;3.01;100.00
12775;BME280;6451;42.630;23.382;2023-01-08T07:58:48;94955.56;;;3.06;100.00
12775;BME280;6451;42.630;23.382;2023-01-08T08:01:16;94959.34;;;3.05;100.00
12775;BME280;6451;42.630;23.382;2023-01-08T08:03:43;94953.19;;;3.04;100.00
12775;BME280;6451;42.630;23.382;2023-01-08T08:06:11;94960.44;;;3.04;100.00
12775;BME280;6451;42.630;23.382;2023-01-08T08:08:38;94957.53;;;3.00;100.00
12775;BME280;6451;42.630;23.382;2023-01-08T08:11:05;94957.09;;;3.17;100.00
12775;BME280;6451;42.630;23.382;2023-01-08T08:13:32;94944.75;;;3.16;100.00
12775;BME280;6451;42.630;23.382;2023-01-08T08:16:01;94939.31;;;3.21;100.00
12775;BME280;6451;42.630;23.382;2023-01-08T08:18:36;94956.34;;;3.35;100.00
12775;BME280;6451;42.630;23.382;2023-01-08T08:21:04;94944.19;;;3.19;100.00
12775;BME280;6451;42.630;23.382;2023-01-08T08:23:32;94954.25;;;3.32;100.00
12775;BME280;6451;42.630;23.382;2023-01-08T08:26:01;94943.25;;;3.29;100.00
12775;BME280;6451;42.630;23.382;2023-01-08T08:28:28;94943.28;;;3.53;100.00
12775;BME280;6451;42.630;23.382;2023-01-08T08:30:55;94948.81;;;3.61;100.00
12775;BME280;6451;42.630;23.382;2023-01-08T08:33:21;94944.53;;;3.60;100.00
12775;BME280;6451;42.630;23.382;2023-01-08T08:35:50;94941.22;;;3.87;100.00
12775;BME280;6451;42.630;23.382;2023-01-08T08:38:18;94928.41;;;3.84;100.00
12775;BME280;6451;42.630;23.382;2023-01-08T08:40:45;94944.56;;;3.98;100.00
12775;BME280;6451;42.630;23.382;2023-01-08T08:43:12;94927.59;;;3.84;100.00
12775;BME280;6451;42.630;23.382;2023-01-08T08:45:40;94951.03;;;4.16;100.00
12775;BME280;6451;42.630;23.382;2023-01-08T08:48:08;94928.75;;;3.97;100.00
12775;BME280;6451;42.630;23.382;2023-01-08T08:50:36;94912.56;;;3.83;100.00
12775;BME280;6451;42.630;23.382;2023-01-08T08:53:05;94946.97;;;4.18;100.00
12775;BME280;6451;42.630;23.382;2023-01-08T08:55:33;94895.50;;;4.11;100.00
12775;BME280;6451;42.630;23.382;2023-01-08T08:58:05;94942.84;;;4.45;100.00
12775;BME280;6451;42.630;23.382;2023-01-08T09:00:35;94923.50;;;4.43;100.00
12775;BME280;6451;42.630;23.382;2023-01-08T09:03:02;94940.78;;;4.56;100.00
12775;BME280;6451;42.630;23.382;2023-01-08T09:05:29;94922.69;;;4.75;100.00
12775;BME280;6451;42.630;23.382;2023-01-08T09:07:56;94939.09;;;4.92;100.00
12775;BME280;6451;42.630;23.382;2023-01-08T09:10:25;94938.59;;;5.04;100.00
12775;BME280;6451;42.630;23.382;2023-01-08T09:12:53;94815.75;;;4.12;100.00
12775;BME280;6451;42.630;23.382;2023-01-08T09:15:21;94859.66;;;4.54;100.00
12775;BME280;6451;42.630;23.382;2023-01-08T09:17:52;94908.28;;;4.71;100.00
12775;BME280;6451;42.630;23.382;2023-01-08T09:20:21;94935.63;;;5.06;100.00
12775;BME280;6451;42.630;23.382;2023-01-08T09:22:48;94923.91;;;5.15;100.00
12775;BME280;6451;42.630;23.382;2023-01-08T09:25:15;94909.19;;;4.80;100.00
12775;BME280;6451;42.630;23.382;2023-01-08T09:27:44;94922.16;;;4.92;100.00
12775;BME280;6451;42.630;23.382;2023-01-08T09:30:12;94917.16;;;4.85;100.00
12775;BME280;6451;42.630;23.382;2023-01-08T09:32:40;94918.09;;;5.08;100.00
12775;BME280;6451;42.630;23.382;2023-01-08T09:35:08;94892.28;;;4.93;100.00
12775;BME280;6451;42.630;23.382;2023-01-08T09:37:35;94909.03;;;5.04;100.00
12775;BME280;6451;42.630;23.382;2023-01-08T09:40:02;94913.31;;;5.05;100.00
12775;BME280;6451;42.630;23.382;2023-01-08T09:42:30;94896.97;;;5.29;100.00
12775;BME280;6451;42.630;23.382;2023-01-08T09:44:59;94830.63;;;5.11;100.00
12775;BME280;6451;42.630;23.382;2023-01-08T09:47:30;94892.53;;;5.38;100.00
12775;BME280;6451;42.630;23.382;2023-01-08T09:50:00;94869.41;;;5.37;100.00
12775;BME280;6451;42.630;23.382;2023-01-08T09:52:29;94853.81;;;5.62;100.00
12775;BME280;6451;42.630;23.382;2023-01-08T09:54:57;94850.97;;;5.80;100.00
12775;BME280;6451;42.630;23.382;2023-01-08T09:57:26;94856.91;;;5.69;100.00
12775;BME280;6451;42.630;23.382;2023-01-08T09:59:54;94794.31;;;5.49;100.00
12775;BME280;6451;42.630;23.382;2023-01-08T10:02:36;94859.75;;;6.00;100.00
12775;BME280;6451;42.630;23.382;2023-01-08T10:05:10;94842.38;;;6.06;100.00
12775;BME280;6451;42.630;23.382;2023-01-08T10:07:38;94838.94;;;6.14;100.00
12775;BME280;6451;42.630;23.382;2023-01-08T10:10:16;94835.75;;;6.12;100.00
12775;BME280;6451;42.630;23.382;2023-01-08T10:12:44;94810.84;;;6.06;100.00
12775;BME280;6451;42.630;23.382;2023-01-08T10:15:14;94785.59;;;6.02;100.00
12775;BME280;6451;42.630;23.382;2023-01-08T10:17:48;94828.16;;;6.36;100.00
12775;BME280;6451;42.630;23.382;2023-01-08T10:20:18;94760.56;;;6.02;100.00
12775;BME280;6451;42.630;23.382;2023-01-08T10:22:47;94834.03;;;6.61;100.00
12775;BME280;6451;42.630;23.382;2023-01-08T10:25:17;94742.53;;;5.89;100.00
12775;BME280;6451;42.630;23.382;2023-01-08T10:27:46;94817.72;;;6.75;100.00
12775;BME280;6451;42.630;23.382;2023-01-08T10:30:16;94828.19;;;6.67;100.00
12775;BME280;6451;42.630;23.382;2023-01-08T10:32:51;94815.91;;;6.84;100.00
12775;BME280;6451;42.630;23.382;2023-01-08T10:35:21;94797.63;;;6.81;100.00
12775;BME280;6451;42.630;23.382;2023-01-08T10:37:49;94812.59;;;6.95;100.00
12775;BME280;6451;42.630;23.382;2023-01-08T10:40:24;94729.09;;;6.42;100.00
12775;BME280;6451;42.630;23.382;2023-01-08T10:42:55;94783.88;;;6.91;100.00
12775;BME280;6451;42.630;23.382;2023-01-08T10:45:24;94781.38;;;7.03;100.00
12775;BME280;6451;42.630;23.382;2023-01-08T10:47:55;94771.38;;;7.04;100.00
12775;BME280;6451;42.630;23.382;2023-01-08T10:50:25;94780.81;;;7.23;100.00
12775;BME280;6451;42.630;23.382;2023-01-08T10:52:55;94777.63;;;7.21;100.00
12775;BME280;6451;42.630;23.382;2023-01-08T10:55:24;94757.75;;;7.17;100.00
12775;BME280;6451;42.630;23.382;2023-01-08T10:57:57;94776.84;;;7.30;100.00
12775;BME280;6451;42.630;23.382;2023-01-08T11:00:26;94770.34;;;7.31;100.00
12775;BME280;6451;42.630;23.382;2023-01-08T11:02:55;94775.19;;;7.11;100.00
12775;BME280;6451;42.630;23.382;2023-01-08T11:05:29;94770.16;;;7.27;100.00
12775;BME280;6451;42.630;23.382;2023-01-08T11:07:58;94705.66;;;7.00;100.00
12775;BME280;6451;42.630;23.382;2023-01-08T11:10:26;94773.66;;;7.28;100.00
12775;BME280;6451;42.630;23.382;2023-01-08T11:12:55;94739.84;;;7.21;100.00
12775;BME280;6451;42.630;23.382;2023-01-08T11:15:31;94741.25;;;7.28;100.00
12775;BME280;6451;42.630;23.382;2023-01-08T11:18:18;94770.34;;;7.31;100.00
12775;BME280;6451;42.630;23.382;2023-01-08T11:20:46;94765.22;;;7.20;100.00
12775;BME280;6451;42.630;23.382;2023-01-08T11:23:19;94744.59;;;7.24;100.00
12775;BME280;6451;42.630;23.382;2023-01-08T11:25:54;94763.69;;;7.54;100.00
12775;BME280;6451;42.630;23.382;2023-01-08T11:28:29;94722.56;;;7.40;100.00
12775;BME280;6451;42.630;23.382;2023-01-08T11:31:08;94754.03;;;7.53;100.00
12775;BME280;6451;42.630;23.382;2023-01-08T11:33:41;94750.66;;;7.73;100.00
12775;BME280;6451;42.630;23.382;2023-01-08T11:36:14;94746.38;;;7.72;100.00
12775;BME280;6451;42.630;23.382;2023-01-08T11:38:45;94747.69;;;7.75;100.00
12775;BME280;6451;42.630;23.382;2023-01-08T11:41:23;94747.81;;;7.78;100.00
12775;BME280;6451;42.630;23.382;2023-01-08T11:44:12;94742.28;;;7.84;100.00
12775;BME280;6451;42.630;23.382;2023-01-08T11:46:48;94731.28;;;7.80;100.00
12775;BME280;6451;42.630;23.382;2023-01-08T11:49:49;94733.53;;;7.87;100.00
12775;BME280;6451;42.630;23.382;2023-01-08T11:52:38;94730.66;;;7.83;100.00
12775;BME280;6451;42.630;23.382;2023-01-08T11:55:27;94735.09;;;7.96;100.00
12775;BME280;6451;42.630;23.382;2023-01-08T11:58:12;94733.19;;;7.97;100.00
12775;BME280;6451;42.630;23.382;2023-01-08T12:00:59;94731.91;;;8.03;100.00
12775;BME280;6451;42.630;23.382;2023-01-08T12:03:34;94730.47;;;8.23;100.00
12775;BME280;6451;42.630;23.382;2023-01-08T12:06:19;94668.03;;;7.90;100.00
12775;BME280;6451;42.630;23.382;2023-01-08T12:08:56;94720.47;;;8.15;100.00
12775;BME280;6451;42.630;23.382;2023-01-08T12:11:28;94702.66;;;8.14;100.00
12775;BME280;6451;42.630;23.382;2023-01-08T12:14:08;94715.81;;;8.24;100.00
12775;BME280;6451;42.630;23.382;2023-01-08T12:16:53;94599.91;;;7.58;100.00
12775;BME280;6451;42.630;23.382;2023-01-08T12:19:35;94710.25;;;8.38;100.00
12775;BME280;6451;42.630;23.382;2023-01-08T12:22:25;94457.47;;;6.74;100.00
12775;BME280;6451;42.630;23.382;2023-01-08T12:25:07;94695.28;;;8.40;100.00
12775;BME280;6451;42.630;23.382;2023-01-08T12:27:48;94692.41;;;8.45;100.00
12775;BME280;6451;42.630;23.382;2023-01-08T12:30:25;94689.00;;;8.57;100.00
12775;BME280;6451;42.630;23.382;2023-01-08T12:33:00;94675.16;;;8.58;100.00
12775;BME280;6451;42.630;23.382;2023-01-08T12:35:33;94684.97;;;8.72;100.00
12775;BME280;6451;42.630;23.382;2023-01-08T12:38:08;94682.22;;;8.80;100.00
12775;BME280;6451;42.630;23.382;2023-01-08T12:40:39;94680.34;;;8.72;100.00
12775;BME280;6451;42.630;23.382;2023-01-08T12:43:12;94688.50;;;8.63;100.00
12775;BME280;6451;42.630;23.382;2023-01-08T12:45:44;94683.34;;;8.79;100.00
12775;BME280;6451;42.630;23.382;2023-01-08T12:48:16;94675.97;;;8.88;100.00
12775;BME280;6451;42.630;23.382;2023-01-08T12:50:51;94676.91;;;8.93;100.00
12775;BME280;6451;42.630;23.382;2023-01-08T12:53:33;94657.56;;;8.82;100.00
12775;BME280;6451;42.630;23.382;2023-01-08T12:56:08;94660.16;;;8.99;100.00
12775;BME280;6451;42.630;23.382;2023-01-08T12:58:47;94680.69;;;9.00;100.00
12775;BME280;6451;42.630;23.382;2023-01-08T13:01:26;94632.88;;;8.83;100.00
12775;BME280;6451;42.630;23.382;2023-01-08T13:03:57;94670.59;;;9.09;100.00
12775;BME280;6451;42.630;23.382;2023-01-08T13:06:25;94649.94;;;9.05;100.00
12775;BME280;6451;42.630;23.382;2023-01-08T13:08:55;94661.84;;;9.12;100.00
12775;BME280;6451;42.630;23.382;2023-01-08T13:11:27;94659.19;;;9.25;100.00
12775;BME280;6451;42.630;23.382;2023-01-08T13:14:00;94650.28;;;9.24;100.00